Astrid Conroy — ZGAQ5 — position and weather

sailwx.info

Track history (hours):
 
Tides and Currents Weather Stations Pressure Air Temp Water Temp Dewpoint Dewpoint Depression Visibility Wind Speed Wind Dir Waves Ship Positions

Astrid Conroy

Last reported at 2016-Jul-26 17:22 UTC. Time now 2016-Jul-26 19:52 UTC.
Position N 39°45' E 002°37'.

Length 58 m; draft 3.5 m.

Type: Pleasure craft. MMSI: 319031500.

Date/timePositionNaut miles runAvg speedWind from/ knotsBaromVisibWave heightAir tempDewpointWater temp
2016-Jul-26 17:22N 39°45' E 002°37'2 0.1
2016-Jul-26 05:32N 39°45' E 002°35'17 0.4
2016-Jul-24 09:27N 39°31' E 002°22'2 0.3
2016-Jul-24 02:32N 39°32' E 002°25'0 0.0
2016-Jul-24 01:26N 39°32' E 002°25'0 0.0
2016-Jul-23 23:20N 39°32' E 002°25'0 0.0
2016-Jul-23 22:20N 39°32' E 002°25'0 0.0
2016-Jul-23 21:26N 39°32' E 002°25'0 0.0
2016-Jul-23 20:20N 39°32' E 002°25'0 0.0
2016-Jul-23 19:32N 39°32' E 002°25'0 0.0
2016-Jul-23 16:32N 39°32' E 002°25'0 0.0
2016-Jul-23 12:20N 39°32' E 002°25'0 0.0
2016-Jul-23 11:20N 39°32' E 002°25'0 0.0
2016-Jul-23 10:26N 39°32' E 002°25'0 0.0
2016-Jul-23 07:08N 39°32' E 002°25'4 6.8
2016-Jul-23 06:33N 39°29' E 002°28'0 0.0
2016-Jul-23 00:19N 39°29' E 002°28'0 0.1
2016-Jul-22 19:33N 39°29' E 002°28'5 4.5
2016-Jul-22 18:33N 39°31' E 002°33'1111.3
2016-Jul-22 17:33N 39°20' E 002°31'1515.0
2016-Jul-22 16:33N 39°09' E 002°18'1313.3
2016-Jul-22 15:33N 39°04' E 002°02'1312.8
2016-Jul-22 14:33N 38°59' E 001°47'1515.3
2016-Jul-22 13:33N 38°51' E 001°30'3 0.6
2016-Jul-22 07:33N 38°50' E 001°26'5 0.4
2016-Jul-21 19:13N 38°55' E 001°27'812.5
2016-Jul-21 18:33N 38°58' E 001°36'1111.0
2016-Jul-21 17:33N 39°07' E 001°28'2 1.6
2016-Jul-21 16:31N 39°06' E 001°27'0 0.0
2016-Jul-21 15:22N 39°06' E 001°27'0 0.0
2016-Jul-21 14:19N 39°06' E 001°27'0 0.0
2016-Jul-21 13:07N 39°06' E 001°27'0 0.0
2016-Jul-21 12:31N 39°06' E 001°27'0 0.0
2016-Jul-21 10:28N 39°06' E 001°27'0 0.0
2016-Jul-21 09:26N 39°06' E 001°27'910.1
2016-Jul-21 08:32N 39°02' E 001°16'4 3.3
2016-Jul-21 07:11N 38°58' E 001°13'0 0.0
2016-Jul-21 06:11N 38°58' E 001°13'0 0.0
2016-Jul-20 14:23N 38°58' E 001°13'0 0.0
2016-Jul-20 09:16N 38°58' E 001°13'0 0.0
2016-Jul-20 08:29N 38°58' E 001°13'0 0.0
2016-Jul-19 22:29N 38°58' E 001°13'0 0.0
2016-Jul-19 21:28N 38°58' E 001°13'1 0.3
2016-Jul-19 19:23N 38°59' E 001°13'7 8.5
2016-Jul-19 18:32N 38°51' E 001°14'3 0.2
2016-Jul-18 20:33N 38°51' E 001°18'8 7.0
2016-Jul-18 19:27N 38°46' E 001°26'2 0.2
2016-Jul-18 08:28N 38°48' E 001°24'7 0.5
2016-Jul-17 18:09N 38°54' E 001°27'812.5
2016-Jul-17 17:31N 38°47' E 001°23'  
Track history (hours):
 
Tides and Currents Weather Stations Pressure Air Temp Water Temp Dewpoint Dewpoint Depression Visibility Wind Speed Wind Dir Waves Ship Positions

Astrid Conroy

Last reported at 2016-Jul-26 17:22 UTC. Time now 2016-Jul-26 19:52 UTC.
Position N 39°45' E 002°37'.

Length 58 m; draft 3.5 m.

Type: Pleasure craft. MMSI: 319031500.

Date/timePositionNaut miles runAvg speedWind from/ knotsBaromVisibWave heightAir tempDewpointWater temp
2016-Jul-26 17:22N 39°45' E 002°37'2 0.1
2016-Jul-26 05:32N 39°45' E 002°35'17 0.4
2016-Jul-24 09:27N 39°31' E 002°22'2 0.3
2016-Jul-24 02:32N 39°32' E 002°25'0 0.0
2016-Jul-24 01:26N 39°32' E 002°25'0 0.0
2016-Jul-23 23:20N 39°32' E 002°25'0 0.0
2016-Jul-23 22:20N 39°32' E 002°25'0 0.0
2016-Jul-23 21:26N 39°32' E 002°25'0 0.0
2016-Jul-23 20:20N 39°32' E 002°25'0 0.0
2016-Jul-23 19:32N 39°32' E 002°25'0 0.0
2016-Jul-23 16:32N 39°32' E 002°25'0 0.0
2016-Jul-23 12:20N 39°32' E 002°25'0 0.0
2016-Jul-23 11:20N 39°32' E 002°25'0 0.0
2016-Jul-23 10:26N 39°32' E 002°25'0 0.0
2016-Jul-23 07:08N 39°32' E 002°25'4 6.8
2016-Jul-23 06:33N 39°29' E 002°28'0 0.0
2016-Jul-23 00:19N 39°29' E 002°28'0 0.1
2016-Jul-22 19:33N 39°29' E 002°28'5 4.5
2016-Jul-22 18:33N 39°31' E 002°33'1111.3
2016-Jul-22 17:33N 39°20' E 002°31'1515.0
2016-Jul-22 16:33N 39°09' E 002°18'1313.3
2016-Jul-22 15:33N 39°04' E 002°02'1312.8
2016-Jul-22 14:33N 38°59' E 001°47'1515.3
2016-Jul-22 13:33N 38°51' E 001°30'3 0.6
2016-Jul-22 07:33N 38°50' E 001°26'5 0.4
2016-Jul-21 19:13N 38°55' E 001°27'812.5
2016-Jul-21 18:33N 38°58' E 001°36'1111.0
2016-Jul-21 17:33N 39°07' E 001°28'2 1.6
2016-Jul-21 16:31N 39°06' E 001°27'0 0.0
2016-Jul-21 15:22N 39°06' E 001°27'0 0.0
2016-Jul-21 14:19N 39°06' E 001°27'0 0.0
2016-Jul-21 13:07N 39°06' E 001°27'0 0.0
2016-Jul-21 12:31N 39°06' E 001°27'0 0.0
2016-Jul-21 10:28N 39°06' E 001°27'0 0.0
2016-Jul-21 09:26N 39°06' E 001°27'910.1
2016-Jul-21 08:32N 39°02' E 001°16'4 3.3
2016-Jul-21 07:11N 38°58' E 001°13'0 0.0
2016-Jul-21 06:11N 38°58' E 001°13'0 0.0
2016-Jul-20 14:23N 38°58' E 001°13'0 0.0
2016-Jul-20 09:16N 38°58' E 001°13'0 0.0
2016-Jul-20 08:29N 38°58' E 001°13'0 0.0
2016-Jul-19 22:29N 38°58' E 001°13'0 0.0
2016-Jul-19 21:28N 38°58' E 001°13'1 0.3
2016-Jul-19 19:23N 38°59' E 001°13'7 8.5
2016-Jul-19 18:32N 38°51' E 001°14'3 0.2
2016-Jul-18 20:33N 38°51' E 001°18'8 7.0
2016-Jul-18 19:27N 38°46' E 001°26'2 0.2
2016-Jul-18 08:28N 38°48' E 001°24'7 0.5
2016-Jul-17 18:09N 38°54' E 001°27'812.5
2016-Jul-17 17:31N 38°47' E 001°23'  

Dump ship's entire track history